sensor_id;sensor_type;location;lat;lon;timestamp;P1;durP1;ratioP1;P2;durP2;ratioP2
31347;SDS011;21711;49.708;18.568;2022-10-16T00:01:40;6.32;;;4.45;;
31347;SDS011;21711;49.708;18.568;2022-10-16T00:04:08;7.00;;;4.20;;
31347;SDS011;21711;49.708;18.568;2022-10-16T00:06:36;6.55;;;4.13;;
31347;SDS011;21711;49.708;18.568;2022-10-16T00:09:04;11.35;;;5.22;;
31347;SDS011;21711;49.708;18.568;2022-10-16T00:11:33;8.23;;;4.90;;
31347;SDS011;21711;49.708;18.568;2022-10-16T00:14:07;8.25;;;4.47;;
31347;SDS011;21711;49.708;18.568;2022-10-16T00:16:38;9.63;;;4.80;;
31347;SDS011;21711;49.708;18.568;2022-10-16T00:19:06;6.88;;;4.47;;
31347;SDS011;21711;49.708;18.568;2022-10-16T00:21:33;9.02;;;5.20;;
31347;SDS011;21711;49.708;18.568;2022-10-16T00:24:02;7.72;;;4.53;;
31347;SDS011;21711;49.708;18.568;2022-10-16T00:26:33;7.15;;;4.65;;
31347;SDS011;21711;49.708;18.568;2022-10-16T00:29:02;7.10;;;5.05;;
31347;SDS011;21711;49.708;18.568;2022-10-16T00:31:30;10.00;;;5.78;;
31347;SDS011;21711;49.708;18.568;2022-10-16T00:33:58;9.35;;;5.07;;
31347;SDS011;21711;49.708;18.568;2022-10-16T00:36:26;8.63;;;5.25;;
31347;SDS011;21711;49.708;18.568;2022-10-16T00:38:55;10.38;;;5.43;;
31347;SDS011;21711;49.708;18.568;2022-10-16T00:41:30;7.90;;;5.47;;
31347;SDS011;21711;49.708;18.568;2022-10-16T00:44:00;9.18;;;5.18;;
31347;SDS011;21711;49.708;18.568;2022-10-16T00:46:49;13.02;;;5.22;;
31347;SDS011;21711;49.708;18.568;2022-10-16T00:49:18;9.73;;;5.25;;
31347;SDS011;21711;49.708;18.568;2022-10-16T00:51:47;9.30;;;4.85;;
31347;SDS011;21711;49.708;18.568;2022-10-16T00:54:24;8.65;;;5.38;;
31347;SDS011;21711;49.708;18.568;2022-10-16T00:57:01;13.02;;;5.80;;
31347;SDS011;21711;49.708;18.568;2022-10-16T00:59:33;9.75;;;5.65;;
31347;SDS011;21711;49.708;18.568;2022-10-16T01:02:11;9.45;;;5.75;;
31347;SDS011;21711;49.708;18.568;2022-10-16T01:04:42;11.43;;;6.43;;
31347;SDS011;21711;49.708;18.568;2022-10-16T01:13:10;10.63;;;5.40;;
31347;SDS011;21711;49.708;18.568;2022-10-16T01:18:58;9.82;;;5.50;;
31347;SDS011;21711;49.708;18.568;2022-10-16T01:21:41;10.43;;;5.97;;
31347;SDS011;21711;49.708;18.568;2022-10-16T01:24:17;14.25;;;5.90;;
31347;SDS011;21711;49.708;18.568;2022-10-16T01:27:11;9.75;;;4.95;;
31347;SDS011;21711;49.708;18.568;2022-10-16T01:29:48;19.63;;;7.45;;
31347;SDS011;21711;49.708;18.568;2022-10-16T01:32:40;9.38;;;5.20;;
31347;SDS011;21711;49.708;18.568;2022-10-16T01:35:28;7.57;;;4.93;;
31347;SDS011;21711;49.708;18.568;2022-10-16T01:40:39;9.55;;;5.25;;
31347;SDS011;21711;49.708;18.568;2022-10-16T01:43:13;8.82;;;5.45;;
31347;SDS011;21711;49.708;18.568;2022-10-16T01:46:09;9.75;;;5.80;;
31347;SDS011;21711;49.708;18.568;2022-10-16T01:48:39;8.65;;;5.32;;
31347;SDS011;21711;49.708;18.568;2022-10-16T01:51:08;11.80;;;6.45;;
31347;SDS011;21711;49.708;18.568;2022-10-16T01:53:40;9.95;;;5.57;;
31347;SDS011;21711;49.708;18.568;2022-10-16T01:56:12;9.30;;;5.38;;
31347;SDS011;21711;49.708;18.568;2022-10-16T01:58:47;7.75;;;5.55;;
31347;SDS011;21711;49.708;18.568;2022-10-16T02:01:24;13.40;;;5.82;;
31347;SDS011;21711;49.708;18.568;2022-10-16T02:03:55;12.90;;;5.55;;
31347;SDS011;21711;49.708;18.568;2022-10-16T02:06:28;11.20;;;6.05;;
31347;SDS011;21711;49.708;18.568;2022-10-16T02:08:55;13.00;;;5.70;;
31347;SDS011;21711;49.708;18.568;2022-10-16T02:11:23;10.13;;;6.03;;
31347;SDS011;21711;49.708;18.568;2022-10-16T02:13:53;11.40;;;6.97;;
31347;SDS011;21711;49.708;18.568;2022-10-16T02:16:35;12.70;;;6.20;;
31347;SDS011;21711;49.708;18.568;2022-10-16T02:19:13;12.82;;;6.80;;
31347;SDS011;21711;49.708;18.568;2022-10-16T02:21:48;11.88;;;6.20;;
31347;SDS011;21711;49.708;18.568;2022-10-16T02:30:14;18.17;;;8.05;;
31347;SDS011;21711;49.708;18.568;2022-10-16T02:33:00;14.40;;;7.88;;
31347;SDS011;21711;49.708;18.568;2022-10-16T02:35:29;13.50;;;7.25;;
31347;SDS011;21711;49.708;18.568;2022-10-16T02:37:57;23.75;;;7.93;;
31347;SDS011;21711;49.708;18.568;2022-10-16T02:40:25;16.83;;;8.77;;
31347;SDS011;21711;49.708;18.568;2022-10-16T02:42:54;20.00;;;8.50;;
31347;SDS011;21711;49.708;18.568;2022-10-16T02:45:22;12.68;;;7.45;;
31347;SDS011;21711;49.708;18.568;2022-10-16T02:47:51;14.37;;;7.60;;
31347;SDS011;21711;49.708;18.568;2022-10-16T02:50:18;16.10;;;8.65;;
31347;SDS011;21711;49.708;18.568;2022-10-16T02:52:46;15.30;;;7.95;;
31347;SDS011;21711;49.708;18.568;2022-10-16T02:55:13;16.73;;;7.75;;
31347;SDS011;21711;49.708;18.568;2022-10-16T02:57:40;16.83;;;6.32;;
31347;SDS011;21711;49.708;18.568;2022-10-16T03:00:08;13.63;;;7.22;;
31347;SDS011;21711;49.708;18.568;2022-10-16T03:02:39;16.30;;;9.23;;
31347;SDS011;21711;49.708;18.568;2022-10-16T03:05:07;16.67;;;8.30;;
31347;SDS011;21711;49.708;18.568;2022-10-16T03:07:35;25.48;;;11.73;;
31347;SDS011;21711;49.708;18.568;2022-10-16T03:10:03;15.52;;;9.05;;
31347;SDS011;21711;49.708;18.568;2022-10-16T03:12:31;17.30;;;8.27;;
31347;SDS011;21711;49.708;18.568;2022-10-16T03:14:58;26.60;;;13.82;;
31347;SDS011;21711;49.708;18.568;2022-10-16T03:17:26;26.70;;;12.30;;
31347;SDS011;21711;49.708;18.568;2022-10-16T03:19:53;25.35;;;12.20;;
31347;SDS011;21711;49.708;18.568;2022-10-16T03:22:21;24.08;;;12.18;;
31347;SDS011;21711;49.708;18.568;2022-10-16T03:24:48;19.08;;;9.07;;
31347;SDS011;21711;49.708;18.568;2022-10-16T03:27:15;16.75;;;9.80;;
31347;SDS011;21711;49.708;18.568;2022-10-16T03:29:43;25.65;;;10.10;;
31347;SDS011;21711;49.708;18.568;2022-10-16T03:32:10;17.13;;;9.52;;
31347;SDS011;21711;49.708;18.568;2022-10-16T03:34:37;14.35;;;8.18;;
31347;SDS011;21711;49.708;18.568;2022-10-16T03:37:05;17.20;;;9.15;;
31347;SDS011;21711;49.708;18.568;2022-10-16T03:39:32;19.13;;;8.90;;
31347;SDS011;21711;49.708;18.568;2022-10-16T03:41:59;26.15;;;9.32;;
31347;SDS011;21711;49.708;18.568;2022-10-16T03:44:26;22.50;;;10.63;;
31347;SDS011;21711;49.708;18.568;2022-10-16T03:46:54;17.83;;;9.10;;
31347;SDS011;21711;49.708;18.568;2022-10-16T03:49:21;13.38;;;8.07;;
31347;SDS011;21711;49.708;18.568;2022-10-16T03:51:48;20.02;;;9.10;;
31347;SDS011;21711;49.708;18.568;2022-10-16T03:54:15;14.77;;;8.55;;
31347;SDS011;21711;49.708;18.568;2022-10-16T03:56:43;10.50;;;7.32;;
31347;SDS011;21711;49.708;18.568;2022-10-16T03:59:10;13.63;;;7.60;;
31347;SDS011;21711;49.708;18.568;2022-10-16T04:01:37;13.27;;;7.53;;
31347;SDS011;21711;49.708;18.568;2022-10-16T04:04:04;10.55;;;6.38;;
31347;SDS011;21711;49.708;18.568;2022-10-16T04:06:32;12.98;;;6.97;;
31347;SDS011;21711;49.708;18.568;2022-10-16T04:08:59;10.98;;;6.30;;
31347;SDS011;21711;49.708;18.568;2022-10-16T04:11:26;13.45;;;7.00;;
31347;SDS011;21711;49.708;18.568;2022-10-16T04:13:54;11.07;;;6.60;;
31347;SDS011;21711;49.708;18.568;2022-10-16T04:16:22;11.02;;;5.97;;
31347;SDS011;21711;49.708;18.568;2022-10-16T04:18:49;11.32;;;6.10;;
31347;SDS011;21711;49.708;18.568;2022-10-16T04:21:16;11.18;;;5.78;;
31347;SDS011;21711;49.708;18.568;2022-10-16T04:23:43;10.93;;;6.35;;
31347;SDS011;21711;49.708;18.568;2022-10-16T04:26:11;9.70;;;6.07;;
31347;SDS011;21711;49.708;18.568;2022-10-16T04:28:38;12.15;;;6.25;;
31347;SDS011;21711;49.708;18.568;2022-10-16T04:31:05;9.77;;;5.90;;
31347;SDS011;21711;49.708;18.568;2022-10-16T04:33:33;11.80;;;7.10;;
31347;SDS011;21711;49.708;18.568;2022-10-16T04:36:01;9.88;;;5.30;;
31347;SDS011;21711;49.708;18.568;2022-10-16T04:38:29;11.40;;;6.03;;
31347;SDS011;21711;49.708;18.568;2022-10-16T04:40:57;14.10;;;7.20;;
31347;SDS011;21711;49.708;18.568;2022-10-16T04:43:26;11.23;;;6.70;;
31347;SDS011;21711;49.708;18.568;2022-10-16T04:45:54;13.25;;;6.85;;
31347;SDS011;21711;49.708;18.568;2022-10-16T04:48:23;12.30;;;6.88;;
31347;SDS011;21711;49.708;18.568;2022-10-16T04:50:52;16.42;;;7.03;;
31347;SDS011;21711;49.708;18.568;2022-10-16T04:53:20;12.27;;;7.13;;
31347;SDS011;21711;49.708;18.568;2022-10-16T04:55:48;12.25;;;7.13;;
31347;SDS011;21711;49.708;18.568;2022-10-16T04:58:16;20.60;;;7.30;;
31347;SDS011;21711;49.708;18.568;2022-10-16T05:00:44;12.95;;;6.93;;
31347;SDS011;21711;49.708;18.568;2022-10-16T05:03:13;12.63;;;6.72;;
31347;SDS011;21711;49.708;18.568;2022-10-16T05:05:44;12.55;;;6.93;;
31347;SDS011;21711;49.708;18.568;2022-10-16T05:08:12;9.88;;;6.43;;
31347;SDS011;21711;49.708;18.568;2022-10-16T05:10:42;14.68;;;6.32;;
31347;SDS011;21711;49.708;18.568;2022-10-16T05:13:10;12.73;;;6.93;;
31347;SDS011;21711;49.708;18.568;2022-10-16T05:15:38;12.80;;;6.88;;
31347;SDS011;21711;49.708;18.568;2022-10-16T05:18:14;12.13;;;7.38;;
31347;SDS011;21711;49.708;18.568;2022-10-16T05:20:42;12.15;;;6.88;;
31347;SDS011;21711;49.708;18.568;2022-10-16T05:23:09;12.20;;;7.18;;
31347;SDS011;21711;49.708;18.568;2022-10-16T05:25:38;11.32;;;6.35;;
31347;SDS011;21711;49.708;18.568;2022-10-16T05:28:06;10.35;;;6.60;;
31347;SDS011;21711;49.708;18.568;2022-10-16T05:30:33;16.70;;;7.15;;
31347;SDS011;21711;49.708;18.568;2022-10-16T05:33:01;10.52;;;6.88;;
31347;SDS011;21711;49.708;18.568;2022-10-16T05:35:28;9.95;;;6.72;;
31347;SDS011;21711;49.708;18.568;2022-10-16T05:37:55;14.30;;;7.07;;
31347;SDS011;21711;49.708;18.568;2022-10-16T05:40:23;11.50;;;6.32;;
31347;SDS011;21711;49.708;18.568;2022-10-16T05:42:54;13.65;;;6.10;;
31347;SDS011;21711;49.708;18.568;2022-10-16T05:45:22;15.30;;;6.68;;
31347;SDS011;21711;49.708;18.568;2022-10-16T05:47:49;10.73;;;6.60;;
31347;SDS011;21711;49.708;18.568;2022-10-16T05:50:17;11.30;;;6.03;;
31347;SDS011;21711;49.708;18.568;2022-10-16T05:52:45;9.65;;;6.65;;
31347;SDS011;21711;49.708;18.568;2022-10-16T05:55:12;12.57;;;5.63;;
31347;SDS011;21711;49.708;18.568;2022-10-16T05:57:40;12.93;;;6.47;;
31347;SDS011;21711;49.708;18.568;2022-10-16T06:00:07;8.68;;;5.50;;
31347;SDS011;21711;49.708;18.568;2022-10-16T06:02:38;10.20;;;5.47;;
31347;SDS011;21711;49.708;18.568;2022-10-16T06:05:06;12.35;;;5.35;;
31347;SDS011;21711;49.708;18.568;2022-10-16T06:07:34;7.75;;;5.25;;
31347;SDS011;21711;49.708;18.568;2022-10-16T06:10:02;8.30;;;5.07;;
31347;SDS011;21711;49.708;18.568;2022-10-16T06:12:31;7.68;;;4.95;;
31347;SDS011;21711;49.708;18.568;2022-10-16T06:14:58;16.05;;;5.65;;
31347;SDS011;21711;49.708;18.568;2022-10-16T06:17:25;8.27;;;4.95;;
31347;SDS011;21711;49.708;18.568;2022-10-16T06:19:53;19.75;;;5.88;;
31347;SDS011;21711;49.708;18.568;2022-10-16T06:22:21;8.57;;;5.47;;
31347;SDS011;21711;49.708;18.568;2022-10-16T06:24:48;13.05;;;6.15;;
31347;SDS011;21711;49.708;18.568;2022-10-16T06:27:16;7.78;;;5.80;;
31347;SDS011;21711;49.708;18.568;2022-10-16T06:29:43;12.82;;;6.32;;
31347;SDS011;21711;49.708;18.568;2022-10-16T06:32:11;9.68;;;6.22;;
31347;SDS011;21711;49.708;18.568;2022-10-16T06:34:39;8.07;;;6.20;;
31347;SDS011;21711;49.708;18.568;2022-10-16T06:37:09;10.63;;;6.50;;
31347;SDS011;21711;49.708;18.568;2022-10-16T06:39:36;14.15;;;7.97;;
31347;SDS011;21711;49.708;18.568;2022-10-16T06:42:04;11.05;;;7.32;;
31347;SDS011;21711;49.708;18.568;2022-10-16T06:44:34;11.13;;;6.30;;
31347;SDS011;21711;49.708;18.568;2022-10-16T06:47:02;9.63;;;6.18;;
31347;SDS011;21711;49.708;18.568;2022-10-16T06:49:29;11.60;;;6.47;;
31347;SDS011;21711;49.708;18.568;2022-10-16T06:51:57;9.68;;;6.60;;
31347;SDS011;21711;49.708;18.568;2022-10-16T06:54:24;11.18;;;6.68;;
31347;SDS011;21711;49.708;18.568;2022-10-16T06:56:52;10.85;;;6.68;;
31347;SDS011;21711;49.708;18.568;2022-10-16T06:59:22;18.20;;;6.38;;
31347;SDS011;21711;49.708;18.568;2022-10-16T07:01:50;10.60;;;6.90;;
31347;SDS011;21711;49.708;18.568;2022-10-16T07:04:17;10.25;;;5.95;;
31347;SDS011;21711;49.708;18.568;2022-10-16T07:06:44;11.85;;;6.00;;
31347;SDS011;21711;49.708;18.568;2022-10-16T07:09:12;8.68;;;5.80;;
31347;SDS011;21711;49.708;18.568;2022-10-16T07:14:15;10.40;;;5.80;;
31347;SDS011;21711;49.708;18.568;2022-10-16T07:16:44;12.05;;;5.78;;
31347;SDS011;21711;49.708;18.568;2022-10-16T07:19:11;10.18;;;5.78;;
31347;SDS011;21711;49.708;18.568;2022-10-16T07:21:41;9.70;;;6.57;;
31347;SDS011;21711;49.708;18.568;2022-10-16T07:24:12;10.80;;;6.47;;
31347;SDS011;21711;49.708;18.568;2022-10-16T07:26:43;9.57;;;6.15;;
31347;SDS011;21711;49.708;18.568;2022-10-16T07:29:13;9.60;;;6.05;;
31347;SDS011;21711;49.708;18.568;2022-10-16T07:31:43;9.32;;;5.78;;
31347;SDS011;21711;49.708;18.568;2022-10-16T07:34:12;9.13;;;5.45;;
31347;SDS011;21711;49.708;18.568;2022-10-16T07:36:41;8.35;;;5.65;;
31347;SDS011;21711;49.708;18.568;2022-10-16T07:39:13;9.52;;;5.50;;
31347;SDS011;21711;49.708;18.568;2022-10-16T07:41:40;9.38;;;5.90;;
31347;SDS011;21711;49.708;18.568;2022-10-16T07:44:07;11.60;;;5.38;;
31347;SDS011;21711;49.708;18.568;2022-10-16T07:46:35;7.28;;;5.15;;
31347;SDS011;21711;49.708;18.568;2022-10-16T07:49:03;10.05;;;6.22;;
31347;SDS011;21711;49.708;18.568;2022-10-16T07:51:30;10.07;;;6.28;;
31347;SDS011;21711;49.708;18.568;2022-10-16T07:53:57;10.10;;;5.57;;
31347;SDS011;21711;49.708;18.568;2022-10-16T07:56:25;10.32;;;5.72;;
31347;SDS011;21711;49.708;18.568;2022-10-16T07:58:52;8.85;;;6.25;;
31347;SDS011;21711;49.708;18.568;2022-10-16T08:01:20;11.45;;;5.20;;
31347;SDS011;21711;49.708;18.568;2022-10-16T08:03:48;10.98;;;6.00;;
31347;SDS011;21711;49.708;18.568;2022-10-16T08:06:18;10.07;;;5.53;;
31347;SDS011;21711;49.708;18.568;2022-10-16T08:08:53;8.20;;;5.45;;
31347;SDS011;21711;49.708;18.568;2022-10-16T08:11:22;8.40;;;5.95;;
31347;SDS011;21711;49.708;18.568;2022-10-16T08:13:49;8.52;;;5.85;;
31347;SDS011;21711;49.708;18.568;2022-10-16T08:16:17;7.82;;;5.78;;
31347;SDS011;21711;49.708;18.568;2022-10-16T08:18:44;10.77;;;6.05;;
31347;SDS011;21711;49.708;18.568;2022-10-16T08:21:14;8.45;;;6.05;;
31347;SDS011;21711;49.708;18.568;2022-10-16T08:23:47;8.00;;;5.75;;
31347;SDS011;21711;49.708;18.568;2022-10-16T08:26:22;10.80;;;6.38;;
31347;SDS011;21711;49.708;18.568;2022-10-16T08:28:51;6.70;;;5.13;;
31347;SDS011;21711;49.708;18.568;2022-10-16T08:31:18;7.93;;;5.85;;
31347;SDS011;21711;49.708;18.568;2022-10-16T08:33:46;7.93;;;5.20;;
31347;SDS011;21711;49.708;18.568;2022-10-16T08:36:14;7.00;;;5.55;;
31347;SDS011;21711;49.708;18.568;2022-10-16T08:38:43;7.65;;;5.63;;
31347;SDS011;21711;49.708;18.568;2022-10-16T08:41:26;11.93;;;6.03;;
31347;SDS011;21711;49.708;18.568;2022-10-16T08:44:20;9.90;;;5.30;;
31347;SDS011;21711;49.708;18.568;2022-10-16T08:50:11;6.97;;;5.43;;
31347;SDS011;21711;49.708;18.568;2022-10-16T08:52:45;9.63;;;5.40;;
31347;SDS011;21711;49.708;18.568;2022-10-16T08:57:59;8.25;;;5.30;;
31347;SDS011;21711;49.708;18.568;2022-10-16T09:00:27;8.50;;;5.55;;
31347;SDS011;21711;49.708;18.568;2022-10-16T09:25:30;5.82;;;5.15;;
31347;SDS011;21711;49.708;18.568;2022-10-16T09:28:00;11.90;;;5.75;;
31347;SDS011;21711;49.708;18.568;2022-10-16T09:30:28;10.90;;;5.72;;
31347;SDS011;21711;49.708;18.568;2022-10-16T09:32:57;12.07;;;5.85;;
31347;SDS011;21711;49.708;18.568;2022-10-16T09:35:32;7.85;;;5.53;;
31347;SDS011;21711;49.708;18.568;2022-10-16T09:38:02;8.57;;;4.55;;
31347;SDS011;21711;49.708;18.568;2022-10-16T09:40:30;6.25;;;5.00;;
31347;SDS011;21711;49.708;18.568;2022-10-16T09:43:18;6.80;;;4.53;;
31347;SDS011;21711;49.708;18.568;2022-10-16T09:45:54;7.00;;;4.20;;
31347;SDS011;21711;49.708;18.568;2022-10-16T09:48:36;9.95;;;4.70;;
31347;SDS011;21711;49.708;18.568;2022-10-16T09:51:21;5.75;;;3.90;;
31347;SDS011;21711;49.708;18.568;2022-10-16T09:56:35;8.93;;;4.72;;
31347;SDS011;21711;49.708;18.568;2022-10-16T09:59:10;8.48;;;5.45;;
31347;SDS011;21711;49.708;18.568;2022-10-16T10:01:40;5.95;;;4.65;;
31347;SDS011;21711;49.708;18.568;2022-10-16T10:04:08;5.63;;;4.70;;
31347;SDS011;21711;49.708;18.568;2022-10-16T10:06:37;6.18;;;4.45;;
31347;SDS011;21711;49.708;18.568;2022-10-16T10:09:32;4.63;;;3.80;;
31347;SDS011;21711;49.708;18.568;2022-10-16T10:12:15;6.60;;;4.10;;
31347;SDS011;21711;49.708;18.568;2022-10-16T10:15:06;9.23;;;5.03;;
31347;SDS011;21711;49.708;18.568;2022-10-16T10:17:45;6.68;;;4.70;;
31347;SDS011;21711;49.708;18.568;2022-10-16T10:20:25;6.45;;;4.57;;
31347;SDS011;21711;49.708;18.568;2022-10-16T10:23:19;8.10;;;4.82;;
31347;SDS011;21711;49.708;18.568;2022-10-16T10:25:52;6.53;;;4.50;;
31347;SDS011;21711;49.708;18.568;2022-10-16T10:28:46;11.30;;;4.78;;
31347;SDS011;21711;49.708;18.568;2022-10-16T10:46:05;7.93;;;4.75;;
31347;SDS011;21711;49.708;18.568;2022-10-16T10:49:03;8.18;;;4.60;;
31347;SDS011;21711;49.708;18.568;2022-10-16T10:51:56;8.98;;;5.13;;
31347;SDS011;21711;49.708;18.568;2022-10-16T11:03:42;8.00;;;4.70;;
31347;SDS011;21711;49.708;18.568;2022-10-16T11:07:04;9.43;;;5.10;;
31347;SDS011;21711;49.708;18.568;2022-10-16T11:09:41;6.35;;;4.97;;
31347;SDS011;21711;49.708;18.568;2022-10-16T11:12:17;6.88;;;4.43;;
31347;SDS011;21711;49.708;18.568;2022-10-16T11:20:42;9.60;;;5.07;;
31347;SDS011;21711;49.708;18.568;2022-10-16T11:23:25;6.28;;;4.85;;
31347;SDS011;21711;49.708;18.568;2022-10-16T11:26:02;8.57;;;5.20;;
31347;SDS011;21711;49.708;18.568;2022-10-16T11:28:40;6.30;;;4.82;;
31347;SDS011;21711;49.708;18.568;2022-10-16T11:31:27;8.68;;;5.45;;
31347;SDS011;21711;49.708;18.568;2022-10-16T11:34:12;6.70;;;5.15;;
31347;SDS011;21711;49.708;18.568;2022-10-16T11:37:13;10.73;;;5.03;;
31347;SDS011;21711;49.708;18.568;2022-10-16T11:39:47;7.18;;;5.13;;
31347;SDS011;21711;49.708;18.568;2022-10-16T11:42:21;10.70;;;5.13;;
31347;SDS011;21711;49.708;18.568;2022-10-16T11:47:40;5.68;;;4.75;;
31347;SDS011;21711;49.708;18.568;2022-10-16T11:50:30;10.43;;;5.45;;
31347;SDS011;21711;49.708;18.568;2022-10-16T11:55:48;8.88;;;5.35;;
31347;SDS011;21711;49.708;18.568;2022-10-16T11:58:32;9.10;;;5.55;;
31347;SDS011;21711;49.708;18.568;2022-10-16T12:08:02;6.57;;;5.30;;
31347;SDS011;21711;49.708;18.568;2022-10-16T12:10:39;7.45;;;5.28;;
31347;SDS011;21711;49.708;18.568;2022-10-16T12:21:52;7.65;;;5.85;;
31347;SDS011;21711;49.708;18.568;2022-10-16T12:24:37;9.32;;;5.55;;
31347;SDS011;21711;49.708;18.568;2022-10-16T12:30:00;11.98;;;5.97;;
31347;SDS011;21711;49.708;18.568;2022-10-16T12:32:35;8.10;;;5.60;;
31347;SDS011;21711;49.708;18.568;2022-10-16T12:35:26;8.73;;;6.07;;
31347;SDS011;21711;49.708;18.568;2022-10-16T12:38:08;11.00;;;7.22;;
31347;SDS011;21711;49.708;18.568;2022-10-16T12:41:04;16.38;;;6.85;;
31347;SDS011;21711;49.708;18.568;2022-10-16T12:43:42;7.28;;;6.05;;
31347;SDS011;21711;49.708;18.568;2022-10-16T12:48:42;10.98;;;6.93;;
31347;SDS011;21711;49.708;18.568;2022-10-16T12:51:35;10.32;;;6.82;;
31347;SDS011;21711;49.708;18.568;2022-10-16T12:54:17;11.65;;;7.13;;
31347;SDS011;21711;49.708;18.568;2022-10-16T12:59:20;9.45;;;6.10;;
31347;SDS011;21711;49.708;18.568;2022-10-16T13:17:41;11.73;;;6.43;;
31347;SDS011;21711;49.708;18.568;2022-10-16T13:22:48;11.38;;;7.13;;
31347;SDS011;21711;49.708;18.568;2022-10-16T13:28:17;9.90;;;7.05;;
31347;SDS011;21711;49.708;18.568;2022-10-16T13:30:54;10.52;;;6.65;;
31347;SDS011;21711;49.708;18.568;2022-10-16T13:33:35;9.52;;;6.47;;
31347;SDS011;21711;49.708;18.568;2022-10-16T13:36:06;12.30;;;6.65;;
31347;SDS011;21711;49.708;18.568;2022-10-16T13:38:48;10.98;;;6.97;;
31347;SDS011;21711;49.708;18.568;2022-10-16T13:41:36;12.05;;;6.78;;
31347;SDS011;21711;49.708;18.568;2022-10-16T13:44:03;9.27;;;6.68;;
31347;SDS011;21711;49.708;18.568;2022-10-16T13:46:39;11.15;;;7.75;;
31347;SDS011;21711;49.708;18.568;2022-10-16T13:49:16;11.43;;;6.50;;
31347;SDS011;21711;49.708;18.568;2022-10-16T13:51:55;9.02;;;6.25;;
31347;SDS011;21711;49.708;18.568;2022-10-16T13:54:25;11.35;;;5.97;;
31347;SDS011;21711;49.708;18.568;2022-10-16T13:57:04;10.88;;;7.47;;
31347;SDS011;21711;49.708;18.568;2022-10-16T13:59:52;10.55;;;5.85;;
31347;SDS011;21711;49.708;18.568;2022-10-16T14:02:36;12.32;;;6.78;;
31347;SDS011;21711;49.708;18.568;2022-10-16T14:05:08;8.73;;;5.70;;
31347;SDS011;21711;49.708;18.568;2022-10-16T14:07:37;8.40;;;6.10;;
31347;SDS011;21711;49.708;18.568;2022-10-16T14:10:06;9.10;;;6.53;;
31347;SDS011;21711;49.708;18.568;2022-10-16T14:13:03;11.75;;;7.35;;
31347;SDS011;21711;49.708;18.568;2022-10-16T14:15:34;10.48;;;6.13;;
31347;SDS011;21711;49.708;18.568;2022-10-16T14:18:02;10.20;;;5.78;;
31347;SDS011;21711;49.708;18.568;2022-10-16T14:20:31;10.50;;;7.57;;
31347;SDS011;21711;49.708;18.568;2022-10-16T14:23:02;10.85;;;7.05;;
31347;SDS011;21711;49.708;18.568;2022-10-16T14:25:49;11.63;;;7.63;;
31347;SDS011;21711;49.708;18.568;2022-10-16T14:28:20;9.90;;;7.38;;
31347;SDS011;21711;49.708;18.568;2022-10-16T14:30:54;13.45;;;7.32;;
31347;SDS011;21711;49.708;18.568;2022-10-16T14:36:01;9.85;;;6.53;;
31347;SDS011;21711;49.708;18.568;2022-10-16T14:38:35;12.20;;;6.45;;
31347;SDS011;21711;49.708;18.568;2022-10-16T14:41:05;10.23;;;7.22;;
31347;SDS011;21711;49.708;18.568;2022-10-16T14:43:34;11.48;;;7.60;;
31347;SDS011;21711;49.708;18.568;2022-10-16T14:46:17;14.68;;;8.75;;
31347;SDS011;21711;49.708;18.568;2022-10-16T14:48:48;13.95;;;7.65;;
31347;SDS011;21711;49.708;18.568;2022-10-16T14:51:18;12.20;;;7.57;;
31347;SDS011;21711;49.708;18.568;2022-10-16T14:53:46;12.35;;;7.93;;
31347;SDS011;21711;49.708;18.568;2022-10-16T14:56:16;10.23;;;6.78;;
31347;SDS011;21711;49.708;18.568;2022-10-16T14:58:50;9.85;;;6.25;;
31347;SDS011;21711;49.708;18.568;2022-10-16T15:01:18;11.63;;;7.00;;
31347;SDS011;21711;49.708;18.568;2022-10-16T15:03:47;15.90;;;7.80;;
31347;SDS011;21711;49.708;18.568;2022-10-16T15:06:15;13.15;;;7.38;;
31347;SDS011;21711;49.708;18.568;2022-10-16T15:08:43;8.68;;;6.40;;
31347;SDS011;21711;49.708;18.568;2022-10-16T15:11:11;10.57;;;7.05;;
31347;SDS011;21711;49.708;18.568;2022-10-16T15:13:42;9.73;;;6.78;;
31347;SDS011;21711;49.708;18.568;2022-10-16T15:16:11;17.80;;;7.78;;
31347;SDS011;21711;49.708;18.568;2022-10-16T15:18:43;10.35;;;6.53;;
31347;SDS011;21711;49.708;18.568;2022-10-16T15:21:15;14.50;;;7.93;;
31347;SDS011;21711;49.708;18.568;2022-10-16T15:23:53;12.18;;;7.00;;
31347;SDS011;21711;49.708;18.568;2022-10-16T15:26:23;10.48;;;6.88;;
31347;SDS011;21711;49.708;18.568;2022-10-16T15:28:52;15.88;;;8.07;;
31347;SDS011;21711;49.708;18.568;2022-10-16T15:31:20;17.63;;;9.07;;
31347;SDS011;21711;49.708;18.568;2022-10-16T15:33:52;16.75;;;8.75;;
31347;SDS011;21711;49.708;18.568;2022-10-16T15:36:25;12.98;;;7.70;;
31347;SDS011;21711;49.708;18.568;2022-10-16T15:39:04;15.32;;;7.90;;
31347;SDS011;21711;49.708;18.568;2022-10-16T15:41:40;14.52;;;8.10;;
31347;SDS011;21711;49.708;18.568;2022-10-16T15:44:08;12.68;;;7.63;;
31347;SDS011;21711;49.708;18.568;2022-10-16T15:46:35;13.05;;;7.88;;
31347;SDS011;21711;49.708;18.568;2022-10-16T15:49:03;12.45;;;8.63;;
31347;SDS011;21711;49.708;18.568;2022-10-16T15:51:30;23.00;;;12.20;;
31347;SDS011;21711;49.708;18.568;2022-10-16T15:53:59;20.27;;;10.95;;
31347;SDS011;21711;49.708;18.568;2022-10-16T15:56:28;16.25;;;8.45;;
31347;SDS011;21711;49.708;18.568;2022-10-16T15:58:56;30.10;;;15.50;;
31347;SDS011;21711;49.708;18.568;2022-10-16T16:01:25;31.85;;;16.58;;
31347;SDS011;21711;49.708;18.568;2022-10-16T16:03:53;34.55;;;20.45;;
31347;SDS011;21711;49.708;18.568;2022-10-16T16:06:21;37.10;;;20.65;;
31347;SDS011;21711;49.708;18.568;2022-10-16T16:08:50;27.27;;;13.95;;
31347;SDS011;21711;49.708;18.568;2022-10-16T16:11:18;25.58;;;13.23;;
31347;SDS011;21711;49.708;18.568;2022-10-16T16:16:16;16.75;;;9.43;;
31347;SDS011;21711;49.708;18.568;2022-10-16T16:18:46;21.63;;;9.63;;
31347;SDS011;21711;49.708;18.568;2022-10-16T16:21:15;18.75;;;9.85;;
31347;SDS011;21711;49.708;18.568;2022-10-16T16:23:43;17.58;;;10.00;;
31347;SDS011;21711;49.708;18.568;2022-10-16T16:26:14;15.20;;;8.90;;
31347;SDS011;21711;49.708;18.568;2022-10-16T16:28:54;19.05;;;9.93;;
31347;SDS011;21711;49.708;18.568;2022-10-16T16:31:24;19.65;;;10.73;;
31347;SDS011;21711;49.708;18.568;2022-10-16T16:33:53;19.58;;;10.15;;
31347;SDS011;21711;49.708;18.568;2022-10-16T16:36:21;21.38;;;10.65;;
31347;SDS011;21711;49.708;18.568;2022-10-16T16:38:54;15.90;;;9.38;;
31347;SDS011;21711;49.708;18.568;2022-10-16T16:41:23;14.98;;;8.73;;
31347;SDS011;21711;49.708;18.568;2022-10-16T16:43:54;13.88;;;8.02;;
31347;SDS011;21711;49.708;18.568;2022-10-16T16:46:22;14.38;;;8.13;;
31347;SDS011;21711;49.708;18.568;2022-10-16T16:48:49;16.35;;;8.80;;
31347;SDS011;21711;49.708;18.568;2022-10-16T16:51:18;15.45;;;7.68;;
31347;SDS011;21711;49.708;18.568;2022-10-16T16:53:47;14.60;;;8.52;;
31347;SDS011;21711;49.708;18.568;2022-10-16T16:56:17;15.43;;;8.73;;
31347;SDS011;21711;49.708;18.568;2022-10-16T16:58:47;14.32;;;8.27;;
31347;SDS011;21711;49.708;18.568;2022-10-16T17:01:16;14.87;;;8.63;;
31347;SDS011;21711;49.708;18.568;2022-10-16T17:03:47;14.30;;;8.02;;
31347;SDS011;21711;49.708;18.568;2022-10-16T17:06:19;16.23;;;7.88;;
31347;SDS011;21711;49.708;18.568;2022-10-16T17:08:51;16.58;;;9.43;;
31347;SDS011;21711;49.708;18.568;2022-10-16T17:11:21;14.27;;;8.93;;